Time;durP1;ratioP1;P1;durP2;ratioP2;P2;SDS_P1;SDS_P2;PMS_P1;PMS_P2;Temp;Humidity;BMP_temperature;BMP_pressure;BME280_temperature;BME280_humidity;BME280_pressure;Samples;Min_cycle;Max_cycle;Signal;HPM_P1;HPM_P2
2024/02/19 06:11:06;;;;;;;;;;;;;;;-3.56;100.00;101585.04;1833186;76;20161;-75
2024/02/19 06:13:33;;;;;;;;;;;;;;;-3.55;100.00;101581.67;1799948;80;20092;-78
2024/02/19 06:15:59;;;;;;;;;;;;;;;-3.49;100.00;101584.38;1799361;78;20492;-73
2024/02/19 06:18:26;;;;;;;;;;;;;;;-3.40;100.00;101587.17;1825842;78;20148;-69
2024/02/19 06:20:53;;;;;;;;;;;;;;;-3.31;100.00;101596.73;1830901;78;20161;-68
2024/02/19 06:23:19;;;;;;;;;;;;;;;-3.23;100.00;101595.24;1826280;78;20442;-68
2024/02/19 06:25:46;;;;;;;;;;;;;;;-3.14;100.00;101598.40;1831919;78;20394;-70
2024/02/19 06:28:13;;;;;;;;;;;;;;;-3.04;100.00;101599.94;1831512;78;20133;-70
2024/02/19 07:36:54;;;;;;;;;;;;;;;-0.45;100.00;101625.34;1804599;79;20159;-71
2024/02/19 07:39:20;;;;;;;;;;;;;;;-0.20;100.00;101617.98;1789322;80;20117;-68
2024/02/19 07:49:19;;;;;;;;;;;;;;;0.82;100.00;101616.52;1787098;79;20441;-69
2024/02/19 08:29:06;;;;;;;;;;;;;;;2.82;84.56;101610.20;1788839;80;20155;-67
2024/02/19 08:31:33;;;;;;;;;;;;;;;2.84;85.18;101607.20;1788459;80;20143;-73
2024/02/19 08:33:59;;;;;;;;;;;;;;;2.90;84.38;101610.22;1789357;79;20317;-71
2024/02/19 08:36:26;;;;;;;;;;;;;;;2.96;83.24;101611.08;1797005;79;20129;-80
2024/02/19 08:38:56;;;;;;;;;;;;;;;3.02;82.53;101606.37;1821121;79;20110;-76
2024/02/19 08:41:20;;;;;;;;;;;;;;;3.10;81.21;101605.94;1820845;79;20121;-75
2024/02/19 08:43:47;;;;;;;;;;;;;;;3.13;73.09;101612.81;1792854;79;20129;-71
2024/02/19 08:46:15;;;;;;;;;;;;;;;3.17;72.75;101606.80;1788963;80;20087;-69
2024/02/19 08:48:41;;;;;;;;;;;;;;;3.21;70.76;101610.63;1789074;79;20193;-66
2024/02/19 08:51:08;;;;;;;;;;;;;;;3.23;71.13;101610.20;1788831;80;20166;-72
2024/02/19 08:53:34;;;;;;;;;;;;;;;3.27;70.97;101604.19;1792653;79;20152;-72
2024/02/19 08:56:03;;;;;;;;;;;;;;;3.29;68.44;101605.05;1792214;79;20183;-70
2024/02/19 08:58:30;;;;;;;;;;;;;;;3.27;65.63;101596.47;1797059;79;20129;-75
2024/02/19 09:00:57;;;;;;;;;;;;;;;3.20;64.68;101596.05;1792962;79;20125;-76
2024/02/19 09:03:24;;;;;;;;;;;;;;;3.14;64.69;101593.94;1792940;79;20082;-68
2024/02/19 09:05:50;;;;;;;;;;;;;;;3.10;63.06;101594.79;1771404;79;20102;-69
2024/02/19 09:08:17;;;;;;;;;;;;;;;3.08;61.94;101588.78;1799977;79;20102;-65
2024/02/19 09:10:44;;;;;;;;;;;;;;;3.05;60.64;101596.08;1800145;79;20374;-67
2024/02/19 09:13:10;;;;;;;;;;;;;;;3.01;60.79;101591.36;1800866;79;20100;-65
2024/02/19 09:15:37;;;;;;;;;;;;;;;2.94;58.12;101588.35;1797631;79;20090;-68
2024/02/19 09:18:03;;;;;;;;;;;;;;;2.79;56.84;101584.94;1803747;79;20104;-68
2024/02/19 09:20:30;;;;;;;;;;;;;;;2.65;57.11;101588.34;1789598;79;20114;-69
2024/02/19 09:22:56;;;;;;;;;;;;;;;2.53;56.72;101589.61;1794434;79;20165;-70
2024/02/19 09:25:25;;;;;;;;;;;;;;;2.43;55.93;101581.44;1803411;79;20154;-72
2024/02/19 09:27:50;;;;;;;;;;;;;;;2.33;57.26;101590.02;1803553;79;20126;-73
2024/02/19 09:30:17;;;;;;;;;;;;;;;2.24;58.44;101584.42;1802436;79;20405;-68
2024/02/19 09:32:43;;;;;;;;;;;;;;;2.19;59.23;101582.26;1810710;79;20103;-68
2024/02/19 09:35:10;;;;;;;;;;;;;;;2.16;58.96;101589.09;1792085;79;20481;-78
2024/02/19 09:37:36;;;;;;;;;;;;;;;2.10;58.94;101580.94;1794354;80;20225;-70
2024/02/19 09:40:04;;;;;;;;;;;;;;;2.03;59.93;101573.20;1794994;80;20100;-74
2024/02/19 09:42:31;;;;;;;;;;;;;;;1.94;59.65;101570.20;1794814;80;20092;-70
2024/02/19 09:44:57;;;;;;;;;;;;;;;1.82;60.53;101576.14;1794601;80;20107;-69
2024/02/19 09:47:24;;;;;;;;;;;;;;;1.75;60.76;101571.82;1794900;80;20101;-68
2024/02/19 09:49:50;;;;;;;;;;;;;;;1.67;59.57;101569.21;1794595;80;20130;-68
2024/02/19 09:52:24;;;;;;;;;;;;;;;1.58;59.55;101568.34;1794720;80;20095;-69
2024/02/19 09:54:51;;;;;;;;;;;;;;;1.47;60.18;101571.27;1793539;79;20100;-68
2024/02/19 09:57:21;;;;;;;;;;;;;;;1.43;60.64;101563.11;1780136;79;20139;-72
2024/02/19 09:59:48;;;;;;;;;;;;;;;1.46;60.98;101561.42;1793308;80;20414;-68
2024/02/19 10:02:18;;;;;;;;;;;;;;;1.51;60.91;101555.03;1790934;79;20112;-66
2024/02/19 10:04:42;;;;;;;;;;;;;;;1.59;59.10;101557.22;1780839;79;20370;-69
2024/02/19 10:07:08;;;;;;;;;;;;;;;1.65;56.99;101554.65;1782296;79;20147;-72
2024/02/19 10:09:36;;;;;;;;;;;;;;;1.70;57.31;101550.39;1783936;79;20183;-67
2024/02/19 10:12:03;;;;;;;;;;;;;;;1.81;58.10;101544.89;1797289;79;20094;-71
2024/02/19 10:14:34;;;;;;;;;;;;;;;1.93;58.97;101545.36;1808176;79;20412;-70
2024/02/19 10:17:01;;;;;;;;;;;;;;;2.06;59.78;101541.95;1789479;79;20136;-70
2024/02/19 10:19:28;;;;;;;;;;;;;;;2.20;59.62;101531.72;1796693;79;20161;-69
2024/02/19 10:21:57;;;;;;;;;;;;;;;2.27;59.40;101536.02;1787472;79;20145;-70
2024/02/19 10:24:26;;;;;;;;;;;;;;;2.30;59.66;101527.03;1786940;80;20188;-75
2024/02/19 10:26:52;;;;;;;;;;;;;;;2.30;59.38;101526.61;1808720;79;20214;-73
2024/02/19 10:29:20;;;;;;;;;;;;;;;2.29;59.93;101527.46;1786063;80;20432;-71
2024/02/19 10:31:47;;;;;;;;;;;;;;;2.27;59.73;101522.74;1794842;79;20470;-70
2024/02/19 10:34:16;;;;;;;;;;;;;;;2.25;60.52;101515.89;1786112;80;20126;-72
2024/02/19 10:36:44;;;;;;;;;;;;;;;2.20;59.37;101526.16;1798034;79;20371;-71
2024/02/19 10:39:10;;;;;;;;;;;;;;;2.07;59.57;101517.12;1804066;79;20253;-73
2024/02/19 10:41:39;;;;;;;;;;;;;;;1.96;59.90;101511.98;1797424;79;20181;-71
2024/02/19 10:59:16;;;;;;;;;;;;;;;1.64;62.24;101501.58;1795484;79;20102;-70
2024/02/19 11:01:46;;;;;;;;;;;;;;;1.61;62.40;101500.28;1788641;79;20124;-69
2024/02/19 13:02:02;;;;;;;;;;;;;;;1.34;61.12;101453.13;1807021;78;20199;-70
2024/02/19 13:04:28;;;;;;;;;;;;;;;1.34;61.30;101452.28;1814985;78;20137;-68
2024/02/19 13:06:55;;;;;;;;;;;;;;;1.35;60.96;101448.86;1816043;78;20166;-67
2024/02/19 13:09:22;;;;;;;;;;;;;;;1.35;61.13;101450.14;1803889;78;20095;-69
2024/02/19 13:11:48;;;;;;;;;;;;;;;1.36;61.16;101451.00;1803330;78;20120;-68
2024/02/19 13:14:24;;;;;;;;;;;;;;;1.36;60.88;101447.15;1787268;80;20292;-67
2024/02/19 13:16:57;;;;;;;;;;;;;;;1.35;60.75;101446.30;1783280;80;20183;-79
2024/02/19 13:19:26;;;;;;;;;;;;;;;1.29;61.10;101445.84;1764122;79;20368;-73
2024/02/19 13:21:53;;;;;;;;;;;;;;;1.26;61.81;101445.83;1782560;80;20120;-67
2024/02/19 13:24:19;;;;;;;;;;;;;;;1.23;61.28;101444.52;1797825;80;20126;-70
2024/02/19 13:26:45;;;;;;;;;;;;;;;1.17;61.26;101448.80;1797428;80;20213;-73
2024/02/19 13:29:11;;;;;;;;;;;;;;;1.13;61.65;101447.92;1766606;80;20107;-63
2024/02/19 13:31:40;;;;;;;;;;;;;;;1.10;62.29;101440.63;1778886;79;20123;-72
2024/02/19 13:34:07;;;;;;;;;;;;;;;1.06;63.17;101439.76;1779850;79;20108;-80
2024/02/19 13:36:33;;;;;;;;;;;;;;;1.02;63.28;101441.02;1778199;79;20396;-73
2024/02/19 13:39:03;;;;;;;;;;;;;;;0.95;63.47;101435.84;1775527;80;20178;-73
2024/02/19 13:41:30;;;;;;;;;;;;;;;0.90;63.38;101433.67;1783791;80;20205;-70
2024/02/19 13:43:56;;;;;;;;;;;;;;;0.81;63.25;101439.17;1785992;79;20374;-70
2024/02/19 14:16:06;;;;;;;;;;;;;;;0.38;66.08;101417.55;1806262;78;20133;-69
2024/02/19 14:18:33;;;;;;;;;;;;;;;0.32;65.91;101407.69;1801895;78;20088;-67
2024/02/19 14:21:02;;;;;;;;;;;;;;;0.29;66.26;101406.37;1816556;78;20105;-68
2024/02/19 14:23:30;;;;;;;;;;;;;;;0.27;66.23;101415.75;1824200;78;20378;-71
2024/02/19 14:26:00;;;;;;;;;;;;;;;0.24;66.45;101412.31;1806843;78;20103;-74
2024/02/19 14:28:26;;;;;;;;;;;;;;;0.21;66.99;101404.17;1806171;78;20100;-71
2024/02/19 14:30:53;;;;;;;;;;;;;;;0.21;67.64;101405.45;1803506;78;20135;-65
2024/02/19 14:33:19;;;;;;;;;;;;;;;0.20;68.12;101408.86;1802935;78;20095;-68
2024/02/19 14:35:46;;;;;;;;;;;;;;;0.20;68.27;101404.16;1811510;78;20127;-70
2024/02/19 14:38:12;;;;;;;;;;;;;;;0.17;68.26;101404.13;1804086;78;20147;-68
2024/02/19 14:40:39;;;;;;;;;;;;;;;0.13;67.80;101398.55;1800581;78;20100;-71
2024/02/19 14:52:50;;;;;;;;;;;;;;;0.02;68.66;101393.33;1802593;78;20157;-75
2024/02/19 14:55:16;;;;;;;;;;;;;;;-0.01;68.75;101394.61;1807679;78;20389;-76
2024/02/19 14:57:44;;;;;;;;;;;;;;;-0.03;69.15;101389.90;1808692;78;20102;-71
2024/02/19 15:00:11;;;;;;;;;;;;;;;-0.07;69.45;101388.16;1802280;78;20100;-68
